Time;durP1;ratioP1;P1;durP2;ratioP2;P2;SDS_P1;SDS_P2;PMS_P1;PMS_P2;Temp;Humidity;BMP_temperature;BMP_pressure;BME280_temperature;BME280_humidity;BME280_pressure;Samples;Min_cycle;Max_cycle;Signal;HPM_P1;HPM_P2
2023/08/06 07:56:51;;;;;;;0.93;0.10;;;;;;;;;;10324078;23;20139;-87
2023/08/06 08:01:55;;;;;;;0.88;0.20;;;;;;;;;;10126756;29;20056;-87
2023/08/06 08:06:58;;;;;;;0.20;0.20;;;;;;;;;;10123260;29;20059;-86
2023/08/06 08:12:04;;;;;;;0.50;0.40;;;;;;;;;;10101369;29;20155;-87
2023/08/06 08:17:07;;;;;;;0.27;0.20;;;;;;;;;;10115695;29;20048;-86
2023/08/06 08:22:11;;;;;;;0.40;0.20;;;;;;;;;;10120877;29;20048;-88
2023/08/06 08:27:16;;;;;;;1.45;0.40;;;;;;;;;;10109191;29;20472;-86
2023/08/06 08:32:19;;;;;;;0.70;0.30;;;;;;;;;;10120485;29;20049;-88
2023/08/06 08:37:24;;;;;;;0.57;0.32;;;;;;;;;;10131390;29;20067;-88
2023/08/06 08:42:28;;;;;;;0.15;0.15;;;;;;;;;;10131259;29;20045;-88
2023/08/06 08:47:32;;;;;;;0.13;0.13;;;;;;;;;;10110239;29;20063;-87
2023/08/06 08:52:39;;;;;;;0.63;0.20;;;;;;;;;;10126526;29;20584;-89
2023/08/06 08:57:44;;;;;;;1.17;0.40;;;;;;;;;;10116516;29;20072;-86
2023/08/06 09:02:48;;;;;;;0.63;0.20;;;;;;;;;;10117871;29;20052;-86
2023/08/06 09:07:55;;;;;;;0.17;0.10;;;;;;;;;;10115484;29;20071;-85
2023/08/06 09:13:02;;;;;;;0.13;0.10;;;;;;;;;;10132619;29;20135;-83
2023/08/06 09:18:11;;;;;;;0.10;0.10;;;;;;;;;;10116626;29;20681;-83
2023/08/06 09:23:15;;;;;;;0.10;0.10;;;;;;;;;;10115867;29;20036;-83
2023/08/06 09:28:21;;;;;;;0.10;0.00;;;;;;;;;;10120030;29;20055;-84
2023/08/06 09:33:24;;;;;;;0.17;0.10;;;;;;;;;;10110018;29;20080;-85
2023/08/06 09:38:38;;;;;;;0.05;0.05;;;;;;;;;;10105794;29;20332;-84
2023/08/06 09:43:43;;;;;;;0.20;0.10;;;;;;;;;;10111387;29;20060;-84
2023/08/06 09:48:49;;;;;;;0.70;0.17;;;;;;;;;;10117558;29;20638;-85
2023/08/06 09:53:54;;;;;;;0.73;0.20;;;;;;;;;;10113988;29;20058;-84
2023/08/06 09:59:36;;;;;;;0.25;0.10;;;;;;;;;;10114169;29;20104;-83
2023/08/06 10:04:54;;;;;;;;;;;;;;;;;;10119135;29;20813;-85
2023/08/06 10:09:59;;;;;;;0.32;0.10;;;;;;;;;;10118192;29;19924;-86
2023/08/06 10:15:06;;;;;;;0.00;0.00;;;;;;;;;;10102767;29;20045;-84
2023/08/06 10:20:12;;;;;;;0.10;0.00;;;;;;;;;;10113038;29;20048;-84
2023/08/06 10:25:17;;;;;;;;;;;;;;;;;;10114385;29;20132;-84
2023/08/06 10:30:25;;;;;;;0.50;0.20;;;;;;;;;;10112007;29;19924;-84
2023/08/06 10:35:32;;;;;;;1.45;0.20;;;;;;;;;;10105488;29;20081;-84
2023/08/06 10:47:39;;;;;;;0.10;0.10;;;;;;;;;;10121563;29;20127;-84
2023/08/06 10:52:47;;;;;;;0.10;0.00;;;;;;;;;;10108874;29;20445;-84
2023/08/06 10:57:50;;;;;;;0.30;0.10;;;;;;;;;;10103728;29;20044;-84
2023/08/06 11:02:55;;;;;;;0.00;0.00;;;;;;;;;;10126692;29;20051;-87
2023/08/06 11:08:00;;;;;;;0.38;0.20;;;;;;;;;;10146508;29;20059;-86
2023/08/06 11:13:04;;;;;;;0.20;0.20;;;;;;;;;;10125996;29;20485;-86
2023/08/06 11:18:08;;;;;;;0.10;0.10;;;;;;;;;;10139310;29;20104;-86
2023/08/06 11:23:14;;;;;;;0.90;0.20;;;;;;;;;;10127698;29;20048;-85
2023/08/06 11:28:23;;;;;;;;;;;;;;;;;;10129716;29;20534;-85
2023/08/06 11:33:29;;;;;;;0.10;0.10;;;;;;;;;;10149039;29;19926;-84
2023/08/06 11:38:34;;;;;;;0.20;0.20;;;;;;;;;;10129727;29;20048;-85
2023/08/06 11:43:37;;;;;;;0.10;0.10;;;;;;;;;;10147074;29;20579;-86
2023/08/06 11:48:53;;;;;;;0.57;0.10;;;;;;;;;;10122446;29;20555;-85
2023/08/06 11:53:59;;;;;;;0.57;0.20;;;;;;;;;;10133234;29;20052;-86
2023/08/06 11:59:03;;;;;;;0.30;0.20;;;;;;;;;;10114035;29;20053;-88
2023/08/06 12:04:06;;;;;;;0.30;0.30;;;;;;;;;;10114550;29;20577;-86
2023/08/06 12:09:12;;;;;;;0.98;0.50;;;;;;;;;;10096119;29;20056;-87
2023/08/06 12:14:15;;;;;;;0.43;0.40;;;;;;;;;;10090351;29;20055;-88
2023/08/06 12:19:18;;;;;;;0.40;0.40;;;;;;;;;;10108081;29;20051;-86
2023/08/06 12:24:32;;;;;;;0.60;0.38;;;;;;;;;;10104586;29;20051;-85
2023/08/06 12:29:36;;;;;;;2.13;0.47;;;;;;;;;;10113469;29;20051;-87
2023/08/06 12:34:40;;;;;;;0.32;0.30;;;;;;;;;;10129907;29;20057;-85
2023/08/06 12:39:51;;;;;;;0.50;0.20;;;;;;;;;;10094589;29;20049;-85
2023/08/06 12:44:55;;;;;;;0.20;0.20;;;;;;;;;;10077548;29;20470;-84
2023/08/06 12:49:59;;;;;;;0.52;0.20;;;;;;;;;;10115622;29;20100;-85
2023/08/06 12:55:04;;;;;;;1.08;0.30;;;;;;;;;;10107977;29;20112;-85
2023/08/06 13:00:09;;;;;;;1.03;0.33;;;;;;;;;;10131703;29;20055;-85
2023/08/06 13:05:12;;;;;;;0.70;0.40;;;;;;;;;;10127993;29;20639;-87
2023/08/06 13:10:17;;;;;;;0.30;0.30;;;;;;;;;;10117562;29;20060;-87
2023/08/06 13:15:22;;;;;;;2.08;0.32;;;;;;;;;;10130146;29;20128;-87
2023/08/06 13:20:25;;;;;;;0.77;0.50;;;;;;;;;;10142113;29;20067;-87
2023/08/06 13:25:34;;;;;;;1.23;0.40;;;;;;;;;;10136732;29;20053;-86
2023/08/06 13:30:41;;;;;;;0.73;0.40;;;;;;;;;;10151371;29;20048;-86
2023/08/06 13:35:49;;;;;;;1.00;0.43;;;;;;;;;;10124033;29;20056;-89
2023/08/06 13:40:56;;;;;;;1.08;0.40;;;;;;;;;;10121879;29;20068;-87
2023/08/06 13:46:00;;;;;;;1.17;0.35;;;;;;;;;;10107875;29;20052;-88
2023/08/06 13:51:04;;;;;;;0.25;0.25;;;;;;;;;;10133015;29;20148;-88
2023/08/06 13:56:09;;;;;;;0.20;0.20;;;;;;;;;;10127501;29;20048;-86
2023/08/06 14:01:13;;;;;;;0.55;0.28;;;;;;;;;;10139475;23;20048;-83
2023/08/06 14:06:17;;;;;;;0.30;0.20;;;;;;;;;;10120785;29;20078;-84
2023/08/06 14:11:22;;;;;;;0.20;0.20;;;;;;;;;;10133743;29;20048;-83
2023/08/06 14:16:25;;;;;;;0.70;0.20;;;;;;;;;;10141002;29;20076;-83
2023/08/06 14:21:28;;;;;;;0.55;0.20;;;;;;;;;;10136573;29;20052;-82
2023/08/06 14:26:33;;;;;;;0.98;0.20;;;;;;;;;;10120750;29;20787;-82
2023/08/06 14:31:36;;;;;;;0.75;0.40;;;;;;;;;;10147985;29;20713;-82
2023/08/06 14:36:40;;;;;;;0.52;0.10;;;;;;;;;;10132951;29;20076;-83
2023/08/06 14:41:44;;;;;;;1.00;0.15;;;;;;;;;;10131640;29;20044;-82
2023/08/06 14:46:48;;;;;;;0.20;0.15;;;;;;;;;;10135893;29;20059;-83
2023/08/06 14:51:51;;;;;;;0.28;0.20;;;;;;;;;;10120460;29;20083;-83
2023/08/06 14:56:56;;;;;;;0.28;0.17;;;;;;;;;;10091789;29;20057;-84
2023/08/06 15:02:00;;;;;;;0.45;0.20;;;;;;;;;;10098302;29;20056;-82
2023/08/06 15:07:05;;;;;;;0.63;0.10;;;;;;;;;;10097586;29;20128;-83
2023/08/06 15:12:10;;;;;;;0.10;0.10;;;;;;;;;;10144271;29;20567;-82
2023/08/06 15:17:14;;;;;;;0.20;0.10;;;;;;;;;;10116883;29;20107;-83
2023/08/06 15:22:19;;;;;;;0.20;0.20;;;;;;;;;;10115142;29;20052;-83
2023/08/06 15:27:24;;;;;;;0.30;0.30;;;;;;;;;;10127322;29;20087;-83
2023/08/06 15:32:28;;;;;;;0.80;0.20;;;;;;;;;;10141828;29;20041;-84
2023/08/06 15:37:32;;;;;;;0.32;0.32;;;;;;;;;;10145888;29;20057;-82
2023/08/06 15:42:37;;;;;;;0.85;0.25;;;;;;;;;;10138902;29;20059;-82
2023/08/06 15:47:41;;;;;;;3.10;0.30;;;;;;;;;;10144100;29;20111;-83
2023/08/06 15:52:47;;;;;;;0.17;0.13;;;;;;;;;;10154788;29;20056;-83
2023/08/06 15:57:52;;;;;;;0.10;0.10;;;;;;;;;;10136386;29;20052;-84
2023/08/06 16:02:55;;;;;;;0.20;0.10;;;;;;;;;;10131970;29;20107;-82
2023/08/06 16:07:58;;;;;;;0.20;0.20;;;;;;;;;;10110683;29;20060;-83
2023/08/06 16:13:03;;;;;;;0.15;0.15;;;;;;;;;;10123276;29;20143;-83
2023/08/06 16:18:07;;;;;;;0.20;0.20;;;;;;;;;;10109254;29;20719;-83
2023/08/06 16:23:10;;;;;;;0.43;0.43;;;;;;;;;;10119612;29;20211;-83
2023/08/06 16:28:15;;;;;;;0.70;0.20;;;;;;;;;;10111801;29;20089;-83
2023/08/06 16:33:18;;;;;;;1.48;0.30;;;;;;;;;;10142279;29;20079;-82
2023/08/06 16:38:22;;;;;;;0.20;0.20;;;;;;;;;;10106450;29;20052;-82
2023/08/06 16:43:27;;;;;;;0.63;0.40;;;;;;;;;;10083494;29;20053;-82
2023/08/06 16:48:30;;;;;;;1.05;0.20;;;;;;;;;;10102206;29;20094;-82
2023/08/06 16:53:34;;;;;;;1.08;0.20;;;;;;;;;;10112322;29;20080;-82
2023/08/06 16:58:39;;;;;;;1.85;0.20;;;;;;;;;;10100168;29;20121;-82
2023/08/06 17:03:42;;;;;;;1.17;0.52;;;;;;;;;;10138115;29;20063;-82
2023/08/06 17:08:45;;;;;;;0.40;0.20;;;;;;;;;;10136117;29;20083;-82
2023/08/06 17:13:50;;;;;;;0.43;0.20;;;;;;;;;;10132125;29;20135;-82
2023/08/06 17:18:53;;;;;;;0.40;0.20;;;;;;;;;;10115586;29;20053;-82
2023/08/06 17:23:57;;;;;;;0.77;0.20;;;;;;;;;;10140471;29;20048;-82
2023/08/06 17:29:02;;;;;;;0.82;0.30;;;;;;;;;;10145182;29;20052;-82
2023/08/06 17:34:05;;;;;;;0.15;0.10;;;;;;;;;;10148798;29;20461;-84
2023/08/06 17:39:08;;;;;;;0.38;0.35;;;;;;;;;;10135694;29;20503;-82
2023/08/06 17:44:13;;;;;;;0.28;0.22;;;;;;;;;;10148661;29;20109;-82
2023/08/06 17:49:17;;;;;;;0.57;0.20;;;;;;;;;;10129711;29;20170;-82
2023/08/06 17:54:22;;;;;;;0.10;0.10;;;;;;;;;;10137983;29;20123;-82
2023/08/06 17:59:27;;;;;;;0.95;0.30;;;;;;;;;;10146983;29;20060;-82
2023/08/06 18:04:32;;;;;;;0.28;0.10;;;;;;;;;;10138287;29;20053;-82
2023/08/06 18:09:38;;;;;;;0.65;0.30;;;;;;;;;;10140879;29;20088;-82
2023/08/06 18:14:45;;;;;;;1.33;0.40;;;;;;;;;;10137263;29;20063;-83
2023/08/06 18:19:48;;;;;;;2.92;0.25;;;;;;;;;;10115127;29;20052;-83
2023/08/06 18:24:52;;;;;;;0.20;0.17;;;;;;;;;;10114771;29;20891;-82
2023/08/06 18:29:57;;;;;;;0.20;0.20;;;;;;;;;;10119730;29;20068;-82
2023/08/06 18:35:01;;;;;;;0.23;0.20;;;;;;;;;;10107669;29;20144;-82
2023/08/06 18:40:07;;;;;;;0.20;0.10;;;;;;;;;;10126693;29;20293;-83
2023/08/06 18:45:12;;;;;;;0.10;0.10;;;;;;;;;;10115899;29;20111;-82
2023/08/06 18:50:15;;;;;;;0.45;0.20;;;;;;;;;;10126281;29;20061;-82
2023/08/06 18:55:19;;;;;;;0.60;0.20;;;;;;;;;;10113463;29;20075;-82
2023/08/06 19:00:23;;;;;;;0.45;0.20;;;;;;;;;;10127737;29;20052;-84
2023/08/06 19:05:27;;;;;;;0.20;0.20;;;;;;;;;;10105241;29;20068;-83
2023/08/06 19:10:30;;;;;;;0.40;0.20;;;;;;;;;;10125672;29;20079;-83
2023/08/06 19:15:35;;;;;;;0.22;0.20;;;;;;;;;;10106876;29;20171;-83
2023/08/06 19:20:43;;;;;;;0.10;0.10;;;;;;;;;;10126092;29;20044;-83
2023/08/06 19:25:48;;;;;;;0.35;0.10;;;;;;;;;;10105788;29;20054;-82
2023/08/06 19:30:53;;;;;;;0.90;0.20;;;;;;;;;;10107654;29;20056;-81
2023/08/06 19:35:56;;;;;;;0.10;0.10;;;;;;;;;;10107418;29;20076;-82
2023/08/06 19:41:04;;;;;;;0.13;0.10;;;;;;;;;;10124574;29;20448;-82
2023/08/06 19:46:09;;;;;;;0.17;0.10;;;;;;;;;;10129693;29;20178;-82
2023/08/06 19:51:17;;;;;;;0.30;0.20;;;;;;;;;;10103480;29;20076;-82
2023/08/06 19:56:20;;;;;;;0.43;0.28;;;;;;;;;;10126534;29;20044;-82
2023/08/06 20:01:27;;;;;;;0.20;0.20;;;;;;;;;;10109008;29;20059;-82
2023/08/06 20:06:31;;;;;;;0.10;0.10;;;;;;;;;;10131829;29;20052;-82
2023/08/06 20:11:34;;;;;;;0.10;0.10;;;;;;;;;;10120239;29;20052;-81
2023/08/06 20:16:39;;;;;;;0.10;0.10;;;;;;;;;;10130812;29;20056;-81
2023/08/06 20:21:43;;;;;;;0.75;0.20;;;;;;;;;;10110332;29;20075;-81
2023/08/06 20:26:47;;;;;;;0.10;0.10;;;;;;;;;;10110388;29;20057;-82
2023/08/06 20:31:52;;;;;;;0.10;0.10;;;;;;;;;;10107508;29;20084;-81
2023/08/06 20:36:56;;;;;;;1.20;0.50;;;;;;;;;;10108395;29;20459;-82
2023/08/06 20:41:59;;;;;;;0.85;0.30;;;;;;;;;;10126614;29;20104;-81
2023/08/06 20:47:05;;;;;;;0.32;0.10;;;;;;;;;;10124215;29;20044;-82
2023/08/06 20:52:09;;;;;;;1.60;0.40;;;;;;;;;;10108409;29;20076;-81
2023/08/06 20:57:12;;;;;;;2.33;0.65;;;;;;;;;;10118973;29;20072;-81
2023/08/06 21:02:18;;;;;;;1.35;0.50;;;;;;;;;;10124882;29;20476;-80
2023/08/06 21:07:21;;;;;;;0.70;0.30;;;;;;;;;;10114401;29;20109;-81
2023/08/06 21:12:25;;;;;;;1.70;0.55;;;;;;;;;;10122426;29;20412;-81
2023/08/06 21:17:30;;;;;;;0.55;0.38;;;;;;;;;;10136555;29;20402;-82
2023/08/06 21:22:33;;;;;;;0.30;0.30;;;;;;;;;;10118437;29;20730;-82
2023/08/06 21:27:37;;;;;;;1.05;0.50;;;;;;;;;;10123693;29;20065;-82
2023/08/06 21:32:41;;;;;;;1.67;0.38;;;;;;;;;;10128153;29;20060;-82
2023/08/06 21:37:45;;;;;;;0.70;0.30;;;;;;;;;;10122670;29;20040;-82
2023/08/06 21:42:48;;;;;;;0.40;0.40;;;;;;;;;;10129691;29;20044;-82
2023/08/06 21:47:53;;;;;;;2.08;0.77;;;;;;;;;;10140617;29;20050;-82
2023/08/06 21:52:57;;;;;;;1.27;0.32;;;;;;;;;;10129828;29;20112;-83
2023/08/06 21:58:00;;;;;;;2.05;0.35;;;;;;;;;;10140191;29;20048;-82
2023/08/06 22:03:05;;;;;;;0.98;0.30;;;;;;;;;;10129517;29;20058;-82
2023/08/06 22:08:08;;;;;;;0.80;0.30;;;;;;;;;;10141973;29;20044;-82
2023/08/06 22:13:12;;;;;;;2.20;0.57;;;;;;;;;;10135043;29;20560;-83
2023/08/06 22:18:17;;;;;;;0.20;0.20;;;;;;;;;;10160492;29;20100;-83
2023/08/06 22:23:20;;;;;;;1.88;0.40;;;;;;;;;;10142834;29;20078;-82
2023/08/06 22:28:24;;;;;;;1.25;0.45;;;;;;;;;;10162265;29;20048;-83
2023/08/06 22:33:29;;;;;;;2.90;0.60;;;;;;;;;;10160244;29;20058;-83
2023/08/06 22:38:33;;;;;;;2.57;0.80;;;;;;;;;;10175590;29;20370;-83
2023/08/06 22:43:36;;;;;;;1.77;0.70;;;;;;;;;;10142861;29;20645;-83
2023/08/06 22:48:41;;;;;;;3.67;1.00;;;;;;;;;;10144313;29;20543;-83
2023/08/06 22:53:44;;;;;;;2.10;0.55;;;;;;;;;;10152685;29;20052;-83
2023/08/06 22:58:49;;;;;;;1.95;1.08;;;;;;;;;;10140654;29;20048;-83
2023/08/06 23:03:54;;;;;;;1.95;0.60;;;;;;;;;;10160603;29;20051;-83
2023/08/06 23:08:57;;;;;;;6.22;0.60;;;;;;;;;;10148988;29;20093;-82
2023/08/06 23:14:01;;;;;;;1.38;0.63;;;;;;;;;;10147800;29;20048;-83
2023/08/06 23:19:05;;;;;;;1.33;0.50;;;;;;;;;;10152613;29;20040;-82
2023/08/06 23:24:09;;;;;;;1.90;0.60;;;;;;;;;;10153825;29;20052;-83
2023/08/06 23:29:12;;;;;;;3.42;0.60;;;;;;;;;;10155290;29;20274;-83
2023/08/06 23:34:17;;;;;;;1.48;0.80;;;;;;;;;;10154304;29;20481;-83
2023/08/06 23:39:20;;;;;;;0.98;0.63;;;;;;;;;;10140734;29;20060;-83
2023/08/06 23:44:23;;;;;;;2.38;0.50;;;;;;;;;;10149640;29;20860;-83
2023/08/06 23:49:28;;;;;;;1.88;0.60;;;;;;;;;;10133908;29;20055;-84
2023/08/06 23:54:31;;;;;;;1.10;0.50;;;;;;;;;;10154596;29;20075;-83
2023/08/06 23:59:34;;;;;;;1.45;0.50;;;;;;;;;;10121157;29;20472;-84
